Flight Track Log - Related Links

Times and Time Zones

All times are in EST time to prevent confusion due to time zone crossing. See the N693C flight status page for this flight to view local times or setup timezone preferences in your user account.

Time Position Orientation Groundspeed Altitude Reporting Facility
EST Latitude Longitude Course Direction KTS MPH feet Rate Location/Type
Mon 01:52:11 PM 36.0167 -86.5167 90° East 76 87 900  Level Nashville TRACON
Mon 01:52:47 PM 36.0167 -86.5000 90° East 93 107 1,500 1,200 Climbing Nashville TRACON
Mon 01:53:41 PM 36.0167 -86.4667 90° East 117 135 2,700 1,186 Climbing Nashville TRACON
Mon 01:54:13 PM 36.0103 -86.4547 123° Southeast 107 123 3,200 1,085 Climbing Memphis Center
Mon 01:55:15 PM 36.0069 -86.4133 96° East 117 135 4,400 1,210 Climbing Memphis Center
Mon 01:56:17 PM 35.9997 -86.3683 101° East 114 131 5,700 1,065 Climbing Memphis Center
Mon 01:57:19 PM 35.9953 -86.3297 98° East 113 130 6,600 878 Climbing Memphis Center
Mon 01:58:20 PM 35.9919 -86.2897 96° East 116 133 7,500 829 Climbing Memphis Center
Mon 01:59:22 PM 35.9897 -86.2478 94° East 120 138 8,300 774 Climbing Memphis Center
Mon 02:00:24 PM 35.9900 -86.2053 90° East 122 140 9,100 677 Climbing Memphis Center
Mon 02:01:26 PM 35.9922 -86.1603 86° East 128 147 9,700 634 Climbing Memphis Center
Mon 02:02:27 PM 35.9961 -86.1128 84° East 135 155 10,400 585 Climbing Memphis Center
Mon 02:03:29 PM 36.0006 -86.0606 84° East 147 169 10,900 242 Climbing Memphis Center
Mon 02:04:31 PM 36.0044 -86.0017 85° East 166 191 10,900  Level Memphis Center
Mon 02:05:32 PM 35.9992 -85.9272 95° East 184 212 10,900  Level Memphis Center
Mon 02:06:34 PM 35.9833 -85.8681 108° East 181 208 10,900 -32 Level Memphis Center
Mon 02:08:00 PM 35.9746 -85.7728 96° East  Level FlightAware Approximate
Mon 02:08:38 PM 35.9658 -85.7353 96° East 187 215 10,800  Level Memphis Center
Mon 02:09:39 PM 35.9661 -85.6697 90° East 190 219 10,800  Level Memphis Center
Mon 02:10:41 PM 35.9647 -85.6025 91° East 195 224 10,800  Level Memphis Center
Mon 02:11:15 PM 35.9633 -85.5653 93° East 196 226 10,800  Level Atlanta Center
Mon 02:12:15 PM 35.9600 -85.4983 94° East 191 220 10,800 50 Level Atlanta Center
Mon 02:13:15 PM 35.9586 -85.4317 91° East 191 220 10,900 50 Climbing Atlanta Center
Mon 02:14:15 PM 35.9572 -85.3650 91° East 191 220 10,900  Level Atlanta Center
Mon 02:15:15 PM 35.9558 -85.3008 92° East 191 220 10,900  Level Atlanta Center
Mon 02:16:15 PM 35.9525 -85.2342 94° East 191 220 10,900 50 Level Atlanta Center
Mon 02:17:15 PM 35.9508 -85.1675 92° East 197 227 11,000 50 Climbing Atlanta Center
Mon 02:18:15 PM 35.9494 -85.0981 91° East 197 227 11,000  Level Atlanta Center
Mon 02:19:15 PM 35.9458 -85.0364 94° East 197 227 11,000  Level Atlanta Center
Mon 02:20:15 PM 35.9442 -84.9697 92° East 197 227 11,000  Level Atlanta Center
Mon 02:21:15 PM 35.9425 -84.9031 92° East 197 227 11,000  Level Atlanta Center
Mon 02:22:15 PM 35.9411 -84.8339 91° East 197 227 11,000  Level Atlanta Center
Mon 02:23:15 PM 35.9372 -84.7644 94° East 197 227 11,000  Level Atlanta Center
Mon 02:24:15 PM 35.9356 -84.6953 92° East 197 227 11,000  Level Atlanta Center
Mon 02:25:15 PM 35.9339 -84.6286 92° East 197 227 11,000  Level Atlanta Center
Mon 02:26:15 PM 35.9300 -84.5594 94° East 197 227 11,000  Level Atlanta Center
Mon 02:27:15 PM 35.9281 -84.4900 92° East 197 227 11,000  Level Atlanta Center
Mon 02:28:15 PM 35.9264 -84.4183 92° East 197 227 11,000  Level Atlanta Center
Mon 02:29:15 PM 35.9222 -84.3489 94° East 197 227 11,000  Level Atlanta Center
Mon 02:30:15 PM 35.9203 -84.2719 92° East 197 227 11,000  Level Atlanta Center
Mon 02:31:15 PM 35.9164 -84.2053 94° East 197 227 11,000  Level Atlanta Center
Mon 02:32:15 PM 35.9144 -84.1361 92° East 197 227 11,000  Level Atlanta Center
Mon 02:33:15 PM 35.9122 -84.0694 92° East 197 227 11,000  Level Atlanta Center
Mon 02:34:15 PM 35.9081 -84.0003 94° East 197 227 11,000  Level Atlanta Center
Mon 02:35:15 PM 35.9061 -83.9336 92° East 197 227 11,000  Level Atlanta Center
Mon 02:36:15 PM 35.8997 -83.8644 96° East 197 227 11,000  Level Atlanta Center
Mon 02:37:15 PM 35.8911 -83.7978 99° East 197 227 11,000  Level Atlanta Center
Mon 02:38:15 PM 35.8828 -83.7339 99° East 197 227 11,000  Level Atlanta Center
Mon 02:39:15 PM 35.8742 -83.6672 99° East 197 227 11,000  Level Atlanta Center
Mon 02:40:15 PM 35.8656 -83.6006 99° East 197 227 11,000  Level Atlanta Center
Mon 02:41:15 PM 35.8569 -83.5339 99° East 197 227 11,000  Level Atlanta Center
Mon 02:42:15 PM 35.8464 -83.4675 101° East 197 227 11,000  Level Atlanta Center
Mon 02:43:15 PM 35.8481 -83.3983 88° East 197 227 11,000  Level Atlanta Center
Mon 02:44:15 PM 35.8561 -83.3289 82° East 197 227 11,000  Level Atlanta Center
Mon 02:45:15 PM 35.8639 -83.2572 82° East 197 227 11,000  Level Atlanta Center
Mon 02:46:15 PM 35.8675 -83.1906 86° East 206 237 11,000  Level Atlanta Center
Mon 02:47:15 PM 35.8714 -83.1214 86° East 206 237 11,000  Level Atlanta Center
Mon 02:48:15 PM 35.8769 -83.0494 85° East 206 237 11,000  Level Atlanta Center
Mon 02:49:15 PM 35.8828 -82.9803 84° East 206 237 11,000  Level Atlanta Center
Mon 02:50:15 PM 35.8861 -82.9083 87° East 206 237 11,000  Level Atlanta Center
Mon 02:51:15 PM 35.8917 -82.8367 85° East 200 230 11,000  Level Atlanta Center
Mon 02:52:15 PM 35.8953 -82.7672 86° East 200 230 11,000 50 Level Atlanta Center
Mon 02:53:15 PM 35.9008 -82.6981 84° East 200 230 11,100 50 Climbing Atlanta Center
Mon 02:54:15 PM 35.9042 -82.6261 87° East 200 230 11,100  Level Atlanta Center
Mon 02:55:15 PM 35.9094 -82.5544 85° East 200 230 11,100  Level Atlanta Center
Mon 02:56:15 PM 35.9150 -82.4825 85° East 200 230 11,100  Level Atlanta Center
Mon 02:57:15 PM 35.9203 -82.4131 85° East 200 230 11,100  Level Atlanta Center
Mon 02:58:15 PM 35.9214 -82.3439 89° East 195 224 11,100  Level Atlanta Center
Mon 02:59:15 PM 35.9267 -82.2719 85° East 200 230 11,100  Level Atlanta Center
Mon 03:00:15 PM 35.9358 -82.1922 82° East 200 230 11,100  Level Atlanta Center
Mon 03:01:15 PM 35.9369 -82.1231 89° East 200 230 11,100  Level Atlanta Center
Mon 03:02:15 PM 35.9419 -82.0511 85° East 200 230 11,100  Level Atlanta Center
Mon 03:03:15 PM 35.9472 -81.9817 85° East 200 230 11,100  Level Atlanta Center
Mon 03:04:15 PM 35.9500 -81.9097 87° East 200 230 11,100  Level Atlanta Center
Mon 03:05:15 PM 35.9553 -81.8403 85° East 200 230 11,100  Level Atlanta Center
Mon 03:06:15 PM 35.9581 -81.7711 87° East 200 230 11,100  Level Atlanta Center
Mon 03:07:15 PM 35.9589 -81.7017 89° East 195 224 11,100  Level Atlanta Center
Mon 03:08:15 PM 35.9658 -81.6272 83° East 200 230 11,100 -100 Level Atlanta Center
Mon 03:09:15 PM 35.9686 -81.5578 87° East 200 230 10,900  Descending Atlanta Center
Mon 03:10:15 PM 35.9733 -81.4858 85° East 200 230 11,100 100 Climbing Atlanta Center
Mon 03:11:15 PM 35.9781 -81.4139 85° East 200 230 11,100  Level Atlanta Center
Mon 03:12:15 PM 35.9828 -81.3444 85° East 200 230 11,100  Level Atlanta Center
Mon 03:13:15 PM 35.9853 -81.2697 88° East 200 230 11,100 -100 Level Atlanta Center
Mon 03:14:15 PM 35.9883 -81.2133 86° East 200 230 10,900 -100 Descending Atlanta Center
Mon 03:15:15 PM 35.9906 -81.1361 88° East 200 230 10,900  Level Atlanta Center
Mon 03:16:15 PM 35.9972 -81.0642 83° East 200 230 10,900  Level Atlanta Center
Mon 03:17:15 PM 35.9997 -80.9947 87° East 200 230 10,900  Level Atlanta Center
Mon 03:18:15 PM 36.0022 -80.9253 87° East 200 230 10,900  Level Atlanta Center
Mon 03:19:15 PM 36.0042 -80.8431 88° East 200 230 10,900  Level Atlanta Center
Mon 03:20:15 PM 36.0089 -80.7839 84° East 200 230 10,900  Level Atlanta Center
Mon 03:21:15 PM 36.0133 -80.7144 85° East 195 224 10,900 50 Level Atlanta Center
Mon 03:22:15 PM 36.0156 -80.6475 88° East 195 224 11,000 50 Climbing Atlanta Center
Mon 03:23:15 PM 36.0178 -80.5731 88° East 200 230 11,000  Level Atlanta Center
Mon 03:24:15 PM 36.0136 -80.5039 94° East 200 230 11,000  Level Atlanta Center
Mon 03:25:15 PM 36.0097 -80.4372 94° East 194 223 11,000  Level Atlanta Center
Mon 03:26:15 PM 36.0056 -80.3683 94° East 194 223 11,000  Level Atlanta Center
Mon 03:27:15 PM 35.9992 -80.2967 96° East 194 223 11,000 -397 Level Atlanta Center
Mon 03:35:49 PM 35.9525 -79.6819 90° East 210 242 7,200 -417 Descending Washington Center
Mon 03:36:00 PM 36.0039 -79.7530 104° East  Level FlightAware Approximate
Mon 03:36:50 PM 35.9467 -79.6150 96° East 202 232 7,000  Level Washington Center
Mon 03:37:00 PM 35.9979 -79.6910 96° East  Level FlightAware Approximate
Mon 03:37:45 PM 35.9400 -79.5608 99° East 183 211 7,000  Level Washington Center
Mon 03:38:00 PM 35.9927 -79.6287 96° East  Level FlightAware Approximate
Mon 03:38:37 PM 35.9397 -79.5044 90° East 175 201 7,000  Level Washington Center
Mon 03:39:00 PM 35.9875 -79.5664 96° East  Level FlightAware Approximate
Mon 03:39:38 PM 35.9333 -79.4450 98° East 173 199 7,000  Level Washington Center
Mon 03:40:00 PM 35.9803 -79.5046 107° East  Level FlightAware Approximate
Mon 03:40:40 PM 35.9056 -79.3975 126° Southeast 168 193 6,700  Level Washington Center
Mon 03:41:00 PM 35.9667 -79.4446 90° East  Level FlightAware Approximate
Mon 03:41:40 PM 35.8844 -79.3400 114° Southeast 184 212 6,100  Level Washington Center
Mon 03:42:41 PM 35.8592 -79.2878 121° Southeast 188 216 5,400 -694 Descending Washington Center
Mon 03:43:41 PM 35.8336 -79.2303 119° Southeast 185 213 4,700 -744 Descending Washington Center
Mon 03:44:42 PM 35.8083 -79.1725 118° Southeast 185 213 3,900 -397 Descending Washington Center
Mon 03:45:42 PM 35.7869 -79.1206 117° Southeast 169 194 3,900 -347 Level Washington Center
Mon 03:46:43 PM 35.7633 -79.0681 119° Southeast 173 199 3,200 -446 Descending Washington Center
Mon 03:47:43 PM 35.7506 -79.0086 105° East 179 206 3,000 -94 Descending Washington Center
Mon 03:48:50 PM 35.7564 -78.9450 84° East 162 186 3,000 -47 Level Washington Center
Mon 03:49:51 PM 35.7889 -78.9106 41° Northeast 161 185 2,900 -496 Descending Washington Center
Mon 03:50:51 PM 35.8211 -78.8683 47° Northeast 165 190 2,000 -836 Descending Washington Center
Mon 03:51:53 PM 35.8450 -78.8386 45° Northeast 118 136 1,200 -634 Descending Washington Center
Mon 03:52:54 PM 35.8644 -78.8164 43° Northeast 84 97 700 -492 Descending Washington Center
Mon 03:54:00 PM 35.8667 -78.7833 73° East  Level FlightAware Approximate
Mon 04:01:00 PM 35.8776 -78.7875 73° East  Level Estimated

Login

Don't have an account? Register now (free) for customized features, flight alerts, and more!